createdAt,value
2023-06-30T00:01:04.145Z,98404.05
2023-06-30T00:03:32.669Z,98399.90
2023-06-30T00:06:00.454Z,98403.70
2023-06-30T00:08:28.459Z,98404.54
2023-06-30T00:10:55.993Z,98401.23
2023-06-30T00:13:23.590Z,98401.69
2023-06-30T00:15:51.451Z,98406.14
2023-06-30T00:18:18.996Z,98410.05
2023-06-30T00:20:47.108Z,98404.52
2023-06-30T00:23:14.926Z,98403.42
2023-06-30T00:25:42.919Z,98405.90
2023-06-30T00:28:11.801Z,98411.08
2023-06-30T00:30:40.470Z,98401.70
2023-06-30T00:33:09.648Z,98395.61
2023-06-30T00:35:37.419Z,98397.41
2023-06-30T00:38:05.366Z,98392.65
2023-06-30T00:40:33.035Z,98393.53
2023-06-30T00:43:02.109Z,98393.76
2023-06-30T00:45:29.762Z,98392.75
2023-06-30T00:47:59.055Z,98398.02
2023-06-30T00:50:26.704Z,98394.70
2023-06-30T00:52:54.233Z,98394.39
2023-06-30T00:55:21.976Z,98392.85
2023-06-30T00:57:49.553Z,98390.05
2023-06-30T01:00:18.155Z,98390.34
2023-06-30T01:03:10.537Z,98391.55
2023-06-30T01:05:46.877Z,98394.76
2023-06-30T01:08:53.187Z,98396.77
2023-06-30T01:11:20.800Z,98395.48
2023-06-30T01:13:49.479Z,98391.88
2023-06-30T01:16:17.489Z,98391.40
2023-06-30T01:18:46.052Z,98393.77
2023-06-30T01:21:14.162Z,98394.27
2023-06-30T01:23:59.955Z,98397.46
2023-06-30T01:26:28.175Z,98393.23
2023-06-30T01:28:55.947Z,98388.23
2023-06-30T01:31:23.690Z,98392.58
2023-06-30T01:33:51.403Z,98393.17
2023-06-30T01:36:18.922Z,98394.49
2023-06-30T01:38:46.460Z,98406.04
2023-06-30T01:41:14.001Z,98403.90
2023-06-30T01:43:41.605Z,98400.48
2023-06-30T01:46:09.902Z,98411.14
2023-06-30T01:48:37.498Z,98418.92
2023-06-30T01:51:05.034Z,98420.23
2023-06-30T01:53:32.836Z,98420.84
2023-06-30T01:56:00.444Z,98423.27
2023-06-30T01:58:28.085Z,98419.85
2023-06-30T02:00:55.670Z,98421.21
2023-06-30T02:03:23.691Z,98415.43
2023-06-30T02:05:51.539Z,98417.02
2023-06-30T02:08:19.166Z,98413.39
2023-06-30T02:10:46.720Z,98412.10
2023-06-30T02:13:14.330Z,98414.23
2023-06-30T02:15:42.171Z,98414.51
2023-06-30T02:18:10.073Z,98417.80
2023-06-30T02:20:37.711Z,98415.95
2023-06-30T02:23:05.384Z,98416.14
2023-06-30T02:25:32.937Z,98417.02
2023-06-30T02:28:00.490Z,98423.20
2023-06-30T02:30:28.326Z,98419.88
2023-06-30T02:32:56.244Z,98420.85
2023-06-30T02:35:24.555Z,98425.04
2023-06-30T02:37:54.813Z,98422.31
2023-06-30T02:40:23.916Z,98422.09
2023-06-30T02:42:51.481Z,98422.34
2023-06-30T02:45:19.197Z,98427.39
2023-06-30T02:47:47.282Z,98430.59
2023-06-30T02:50:15.569Z,98431.16
2023-06-30T02:52:47.964Z,98437.86
2023-06-30T02:55:16.735Z,98438.22
2023-06-30T02:58:03.591Z,98442.66
2023-06-30T03:03:00.646Z,98436.85
2023-06-30T03:05:35.968Z,98435.50
2023-06-30T03:08:05.017Z,98432.66
2023-06-30T03:10:32.982Z,98433.02
2023-06-30T03:13:00.675Z,98435.13
2023-06-30T03:15:28.487Z,98429.73
2023-06-30T03:17:56.827Z,98432.63
2023-06-30T03:20:24.983Z,98430.09
2023-06-30T03:22:55.587Z,98433.83
2023-06-30T03:25:23.388Z,98432.70
2023-06-30T03:27:50.908Z,98430.98
2023-06-30T03:30:18.478Z,98429.14
2023-06-30T03:32:46.370Z,98430.06
2023-06-30T03:35:14.066Z,98428.83
2023-06-30T03:37:42.365Z,98428.67
2023-06-30T03:40:11.096Z,98426.98
2023-06-30T03:42:38.897Z,98424.44
2023-06-30T03:45:07.204Z,98422.80
2023-06-30T03:47:34.848Z,98428.01
2023-06-30T03:50:02.474Z,98425.84
2023-06-30T03:52:30.024Z,98430.16
2023-06-30T03:54:57.890Z,98425.61
2023-06-30T03:57:25.501Z,98431.93
2023-06-30T03:59:53.319Z,98433.48
2023-06-30T04:02:21.044Z,98434.27
2023-06-30T04:04:49.009Z,98431.52
2023-06-30T04:07:17.959Z,98429.10
2023-06-30T04:09:45.585Z,98435.84
2023-06-30T04:12:13.178Z,98430.78
2023-06-30T04:14:40.785Z,98425.77
2023-06-30T04:17:08.379Z,98429.29
2023-06-30T04:19:35.947Z,98439.89
2023-06-30T04:22:05.344Z,98432.19
2023-06-30T04:24:33.300Z,98428.74
2023-06-30T04:27:00.830Z,98431.65
2023-06-30T04:29:28.950Z,98433.97
2023-06-30T04:31:56.503Z,98431.85
2023-06-30T04:34:24.074Z,98437.95
2023-06-30T04:36:51.687Z,98425.79
2023-06-30T04:39:20.744Z,98430.27
2023-06-30T04:41:48.319Z,98432.51
2023-06-30T04:44:16.094Z,98429.83
2023-06-30T04:46:44.024Z,98430.85
2023-06-30T04:49:11.640Z,98430.08
2023-06-30T04:51:39.246Z,98425.64
2023-06-30T04:54:07.243Z,98424.81
2023-06-30T04:56:35.234Z,98429.18
2023-06-30T04:59:02.981Z,98430.81
2023-06-30T05:01:31.351Z,98424.91
2023-06-30T05:03:59.612Z,98420.27
2023-06-30T05:06:27.869Z,98426.42
2023-06-30T05:08:55.433Z,98432.80
2023-06-30T05:11:23.042Z,98433.65
2023-06-30T05:13:51.118Z,98441.35
2023-06-30T05:16:18.742Z,98442.30
2023-06-30T05:18:46.687Z,98444.61
2023-06-30T05:21:14.283Z,98445.79
2023-06-30T05:23:41.985Z,98441.21
2023-06-30T05:26:10.919Z,98435.13
2023-06-30T05:28:38.796Z,98429.73
2023-06-30T05:31:06.652Z,98425.20
2023-06-30T05:33:34.461Z,98423.89
2023-06-30T05:36:02.075Z,98425.20
2023-06-30T05:38:29.708Z,98427.26
2023-06-30T05:40:58.065Z,98430.96
2023-06-30T05:43:26.431Z,98426.98
2023-06-30T05:45:54.258Z,98426.40
2023-06-30T05:48:22.234Z,98423.96
2023-06-30T05:50:49.815Z,98423.44
2023-06-30T05:53:17.455Z,98423.20
2023-06-30T05:55:45.179Z,98428.73
2023-06-30T05:58:13.189Z,98430.02
2023-06-30T06:00:40.806Z,98426.97
2023-06-30T06:03:08.435Z,98426.24
2023-06-30T06:05:36.463Z,98426.84
2023-06-30T06:08:04.576Z,98426.20
2023-06-30T06:10:32.484Z,98426.29
2023-06-30T06:13:00.166Z,98431.44
2023-06-30T06:15:27.882Z,98433.84
2023-06-30T06:17:55.732Z,98436.55
2023-06-30T06:20:23.323Z,98435.98
2023-06-30T06:22:50.916Z,98437.54
2023-06-30T06:25:18.674Z,98440.24
2023-06-30T06:27:46.198Z,98439.43
2023-06-30T06:30:14.403Z,98434.27
2023-06-30T06:32:42.128Z,98434.85
2023-06-30T06:35:09.826Z,98432.32
2023-06-30T06:37:37.442Z,98430.04
2023-06-30T06:40:06.753Z,98433.07
2023-06-30T06:42:34.295Z,98435.61
2023-06-30T06:45:01.879Z,98436.55
2023-06-30T06:48:07.384Z,98432.88
2023-06-30T06:50:35.038Z,98432.88
2023-06-30T06:53:02.610Z,98430.35
2023-06-30T06:55:30.191Z,98432.23
2023-06-30T06:57:57.741Z,98439.63
2023-06-30T07:00:25.769Z,98440.02
2023-06-30T07:02:53.826Z,98440.02
2023-06-30T07:05:21.639Z,98436.90
2023-06-30T07:07:49.365Z,98434.98
2023-06-30T07:10:17.109Z,98437.67
2023-06-30T07:12:45.762Z,98439.23
2023-06-30T07:15:13.839Z,98439.99
2023-06-30T07:17:41.729Z,98435.80
2023-06-30T07:20:10.179Z,98437.01
2023-06-30T07:22:37.773Z,98435.73
2023-06-30T07:25:07.726Z,98436.66
2023-06-30T07:27:39.912Z,98434.27
2023-06-30T07:30:08.156Z,98437.61
2023-06-30T07:32:36.343Z,98438.39
2023-06-30T07:35:04.721Z,98429.94
2023-06-30T07:37:32.270Z,98433.58
2023-06-30T07:40:08.706Z,98430.98
2023-06-30T07:42:44.808Z,98428.52
2023-06-30T07:45:13.675Z,98425.08
2023-06-30T07:47:42.221Z,98429.30
2023-06-30T07:50:13.081Z,98432.88
2023-06-30T07:52:45.089Z,98435.15
2023-06-30T07:55:22.642Z,98435.64
2023-06-30T07:57:50.524Z,98435.03
2023-06-30T08:00:21.771Z,98438.77
2023-06-30T08:02:50.327Z,98437.84
2023-06-30T08:05:18.090Z,98429.80
2023-06-30T08:07:50.530Z,98433.30
2023-06-30T08:10:19.997Z,98433.21
2023-06-30T08:12:47.883Z,98431.48
2023-06-30T08:15:18.844Z,98429.29
2023-06-30T08:17:54.614Z,98427.84
2023-06-30T08:20:27.168Z,98421.81
2023-06-30T08:22:55.972Z,98424.41
2023-06-30T08:25:24.990Z,98421.37
2023-06-30T08:27:53.065Z,98423.65
2023-06-30T08:30:24.277Z,98422.65
2023-06-30T08:32:53.240Z,98431.21
2023-06-30T08:35:20.868Z,98430.95
2023-06-30T08:37:52.710Z,98426.83
2023-06-30T08:40:32.499Z,98421.09
2023-06-30T08:43:01.197Z,98423.91
2023-06-30T08:45:29.369Z,98419.48
2023-06-30T08:47:58.654Z,98423.16
2023-06-30T08:50:26.305Z,98423.50
2023-06-30T08:52:54.209Z,98427.39
2023-06-30T08:55:21.840Z,98427.65
2023-06-30T08:57:49.587Z,98428.50
2023-06-30T09:00:17.867Z,98427.27
2023-06-30T09:02:50.488Z,98427.53
2023-06-30T09:05:18.577Z,98425.20
2023-06-30T09:07:48.116Z,98428.02
2023-06-30T09:10:15.942Z,98424.83
2023-06-30T09:12:44.909Z,98428.46
2023-06-30T09:15:12.492Z,98426.27
2023-06-30T09:17:40.108Z,98428.27
2023-06-30T09:20:08.828Z,98426.93
2023-06-30T09:22:54.213Z,98422.89
2023-06-30T09:25:27.461Z,98423.79
2023-06-30T09:27:56.104Z,98426.39
2023-06-30T09:30:33.933Z,98431.91
2023-06-30T09:33:06.379Z,98432.55
2023-06-30T09:35:40.515Z,98429.98
2023-06-30T09:38:12.179Z,98428.55
2023-06-30T09:40:42.756Z,98429.88
2023-06-30T09:43:14.390Z,98428.71
2023-06-30T09:45:44.990Z,98421.87
2023-06-30T09:48:12.983Z,98418.26
2023-06-30T09:50:43.215Z,98417.54
2023-06-30T09:53:10.846Z,98412.00
2023-06-30T09:55:49.600Z,98423.33
2023-06-30T09:58:18.732Z,98419.36
2023-06-30T10:00:47.302Z,98421.83
2023-06-30T10:03:18.448Z,98416.27
2023-06-30T10:05:47.673Z,98418.40
2023-06-30T10:08:15.788Z,98418.45
2023-06-30T10:10:43.869Z,98415.67
2023-06-30T10:13:12.505Z,98414.45
2023-06-30T10:15:41.488Z,98409.33
2023-06-30T10:18:11.378Z,98402.34
2023-06-30T10:20:47.813Z,98398.23
2023-06-30T10:23:21.638Z,98396.39
2023-06-30T10:25:50.502Z,98402.38
2023-06-30T10:28:19.488Z,98399.09
2023-06-30T10:30:50.615Z,98403.34
2023-06-30T10:33:18.274Z,98395.82
2023-06-30T10:35:46.145Z,98402.12
2023-06-30T10:38:14.569Z,98395.80
2023-06-30T10:40:42.523Z,98386.86
2023-06-30T10:43:11.495Z,98389.81
2023-06-30T10:46:05.679Z,98389.23
2023-06-30T10:48:33.276Z,98386.66
2023-06-30T10:51:01.220Z,98386.65
2023-06-30T10:53:28.868Z,98384.67
2023-06-30T10:55:58.093Z,98386.30
2023-06-30T10:58:25.948Z,98379.80
2023-06-30T11:01:07.129Z,98378.10
2023-06-30T11:03:57.665Z,98378.52
2023-06-30T11:06:26.405Z,98380.43
2023-06-30T11:09:01.428Z,98382.41
2023-06-30T11:11:29.122Z,98380.40
2023-06-30T11:14:07.108Z,98376.73
2023-06-30T11:17:02.229Z,98373.38
2023-06-30T11:19:29.804Z,98365.89
2023-06-30T11:22:22.893Z,98362.61
2023-06-30T11:24:50.768Z,98363.02
2023-06-30T11:27:18.393Z,98365.85
2023-06-30T11:29:46.409Z,98364.94
2023-06-30T11:32:19.304Z,98361.58
2023-06-30T11:34:47.037Z,98355.70
2023-06-30T11:37:16.895Z,98354.06
2023-06-30T11:39:51.990Z,98347.64
2023-06-30T11:42:20.645Z,98363.46
2023-06-30T11:44:51.695Z,98379.56
2023-06-30T11:47:22.067Z,98393.10
2023-06-30T11:49:50.058Z,98391.52
2023-06-30T11:52:18.967Z,98382.30
2023-06-30T11:54:46.883Z,98394.45
2023-06-30T11:57:14.564Z,98408.77
2023-06-30T11:59:42.957Z,98406.81
2023-06-30T12:02:11.680Z,98394.47
2023-06-30T12:04:39.504Z,98382.61
2023-06-30T12:07:07.725Z,98379.17
2023-06-30T12:09:35.576Z,98374.22
2023-06-30T12:12:04.026Z,98371.59
2023-06-30T12:14:31.660Z,98370.23
2023-06-30T12:16:59.488Z,98376.64
2023-06-30T12:19:30.054Z,98386.00
2023-06-30T12:22:00.981Z,98384.66
2023-06-30T12:24:33.279Z,98383.30
2023-06-30T12:27:08.694Z,98384.83
2023-06-30T12:29:37.228Z,98378.18
2023-06-30T12:32:15.683Z,98372.52
2023-06-30T12:34:43.443Z,98367.98
2023-06-30T12:37:13.103Z,98362.88
2023-06-30T12:39:40.696Z,98360.38
2023-06-30T12:42:08.440Z,98360.14
2023-06-30T12:44:36.032Z,98372.94
2023-06-30T12:47:15.715Z,98374.40
2023-06-30T12:49:43.357Z,98375.73
2023-06-30T12:52:10.879Z,98370.05
2023-06-30T12:54:38.476Z,98366.21
2023-06-30T12:57:06.658Z,98364.70
2023-06-30T12:59:34.909Z,98363.34
2023-06-30T13:02:02.509Z,98361.59
2023-06-30T13:04:30.245Z,98359.32
2023-06-30T13:07:00.047Z,98356.99
2023-06-30T13:09:27.766Z,98363.56
2023-06-30T13:11:55.338Z,98361.45
2023-06-30T13:14:22.897Z,98359.52
2023-06-30T13:16:50.417Z,98359.02
2023-06-30T13:19:18.195Z,98357.89
2023-06-30T13:21:45.853Z,98357.20
2023-06-30T13:24:13.494Z,98352.03
2023-06-30T13:26:41.141Z,98356.27
2023-06-30T13:29:08.746Z,98353.07
2023-06-30T13:31:36.334Z,98359.71
2023-06-30T13:34:04.030Z,98363.30
2023-06-30T13:36:31.635Z,98366.46
2023-06-30T13:38:59.433Z,98368.89
2023-06-30T13:41:27.885Z,98365.02
2023-06-30T13:43:55.602Z,98366.23
2023-06-30T13:46:23.696Z,98366.17
2023-06-30T13:48:51.755Z,98369.48
2023-06-30T13:51:19.420Z,98371.44
2023-06-30T13:53:46.960Z,98373.38
2023-06-30T13:56:14.517Z,98361.23
2023-06-30T13:58:42.130Z,98358.52
2023-06-30T14:01:09.747Z,98363.06
2023-06-30T14:03:39.163Z,98366.78
2023-06-30T14:06:07.057Z,98367.72
2023-06-30T14:08:35.336Z,98368.65
2023-06-30T14:11:04.378Z,98366.51
2023-06-30T14:13:32.353Z,98366.98
2023-06-30T14:15:59.990Z,98372.91
2023-06-30T14:18:27.868Z,98385.56
2023-06-30T14:20:55.653Z,98387.52
2023-06-30T14:23:23.403Z,98379.42
2023-06-30T14:25:51.359Z,98360.15
2023-06-30T14:28:19.029Z,98352.89
2023-06-30T14:30:46.608Z,98355.33
2023-06-30T14:33:14.361Z,98358.92
2023-06-30T14:35:41.930Z,98363.88
2023-06-30T14:38:09.470Z,98364.33
2023-06-30T14:40:37.105Z,98368.27
2023-06-30T14:43:05.173Z,98370.30
2023-06-30T14:45:32.789Z,98377.27
2023-06-30T14:48:00.445Z,98380.98
2023-06-30T14:50:28.442Z,98375.26
2023-06-30T14:52:56.069Z,98368.67
2023-06-30T14:55:23.662Z,98367.95
2023-06-30T14:57:51.390Z,98360.67
2023-06-30T15:00:18.997Z,98353.65
2023-06-30T15:02:46.728Z,98357.55
2023-06-30T15:05:14.595Z,98364.15
2023-06-30T15:07:43.425Z,98365.13
2023-06-30T15:10:12.472Z,98367.88
2023-06-30T15:12:40.007Z,98375.65
2023-06-30T15:15:08.553Z,98376.63
2023-06-30T15:20:28.783Z,98384.94
2023-06-30T15:22:56.388Z,98376.00
2023-06-30T15:25:25.217Z,98372.62
2023-06-30T15:27:53.077Z,98375.27
2023-06-30T15:30:20.743Z,98375.32
2023-06-30T15:32:49.177Z,98371.17
2023-06-30T15:35:16.996Z,98369.76
2023-06-30T15:37:44.623Z,98367.40
2023-06-30T15:40:12.916Z,98367.36
2023-06-30T15:42:40.468Z,98363.23
2023-06-30T15:45:08.986Z,98363.80
2023-06-30T15:47:36.904Z,98363.59
2023-06-30T15:50:05.343Z,98363.45
2023-06-30T15:52:32.870Z,98362.67
2023-06-30T15:55:18.862Z,98370.35
2023-06-30T15:57:46.686Z,98370.68
2023-06-30T16:00:16.248Z,98367.70
2023-06-30T16:02:43.978Z,98368.81
2023-06-30T16:05:11.814Z,98369.91
2023-06-30T16:07:39.999Z,98370.16
2023-06-30T16:10:07.760Z,98367.92
2023-06-30T16:12:35.316Z,98371.06
2023-06-30T16:15:05.308Z,98373.13
2023-06-30T16:17:34.051Z,98375.75
2023-06-30T16:20:03.030Z,98372.86
2023-06-30T16:22:31.322Z,98368.38
2023-06-30T16:24:58.916Z,98367.73
2023-06-30T16:27:26.623Z,98358.48
2023-06-30T16:30:19.728Z,98359.80
2023-06-30T16:32:48.088Z,98356.24
2023-06-30T16:35:16.502Z,98363.19
2023-06-30T16:37:44.434Z,98363.84
2023-06-30T16:40:12.765Z,98366.85
2023-06-30T16:42:41.590Z,98372.10
2023-06-30T16:45:10.161Z,98374.31
2023-06-30T16:47:38.075Z,98378.50
2023-06-30T16:50:06.748Z,98391.53
2023-06-30T16:52:35.272Z,98404.09
2023-06-30T16:55:06.887Z,98408.55
2023-06-30T16:58:01.128Z,98411.15
2023-06-30T17:00:28.960Z,98411.05
2023-06-30T17:02:56.846Z,98412.54
2023-06-30T17:05:25.405Z,98412.38
2023-06-30T17:07:53.211Z,98411.04
2023-06-30T17:10:20.785Z,98417.83
2023-06-30T17:12:48.352Z,98411.33
2023-06-30T17:15:15.982Z,98405.27
2023-06-30T17:17:43.536Z,98409.25
2023-06-30T17:20:11.959Z,98408.18
2023-06-30T17:22:39.565Z,98410.96
2023-06-30T17:25:07.773Z,98415.69
2023-06-30T17:27:35.343Z,98412.02
2023-06-30T17:30:03.219Z,98411.06
2023-06-30T17:32:30.770Z,98415.77
2023-06-30T17:34:58.427Z,98417.03
2023-06-30T17:37:25.986Z,98412.80
2023-06-30T17:39:53.879Z,98414.80
2023-06-30T17:42:21.536Z,98423.14
2023-06-30T17:44:49.101Z,98427.04
2023-06-30T17:47:16.688Z,98431.46
2023-06-30T17:49:44.578Z,98428.40
2023-06-30T17:52:12.166Z,98432.33
2023-06-30T17:54:39.881Z,98430.08
2023-06-30T17:57:08.216Z,98432.58
2023-06-30T17:59:35.879Z,98436.27
2023-06-30T18:02:05.426Z,98440.60
2023-06-30T18:04:34.178Z,98437.83
2023-06-30T18:07:05.026Z,98439.27
2023-06-30T18:09:34.404Z,98448.95
2023-06-30T18:12:02.360Z,98448.92
2023-06-30T18:14:30.626Z,98451.66
2023-06-30T18:16:58.799Z,98452.47
2023-06-30T18:19:26.602Z,98454.20
2023-06-30T18:21:54.820Z,98458.38
2023-06-30T18:24:22.685Z,98466.77
2023-06-30T18:26:50.659Z,98465.43
2023-06-30T18:29:22.596Z,98470.53
2023-06-30T18:31:51.058Z,98473.12
2023-06-30T18:34:22.125Z,98473.36
2023-06-30T18:36:49.761Z,98476.58
2023-06-30T18:39:17.996Z,98481.95
2023-06-30T18:41:45.726Z,98487.35
2023-06-30T18:44:13.342Z,98483.73
2023-06-30T18:46:40.959Z,98483.23
2023-06-30T18:49:12.116Z,98482.58
2023-06-30T18:51:42.970Z,98483.19
2023-06-30T18:54:10.978Z,98487.77
2023-06-30T18:56:38.818Z,98488.34
2023-06-30T18:59:06.605Z,98485.55
2023-06-30T19:01:34.387Z,98487.64
2023-06-30T19:04:02.274Z,98486.77
2023-06-30T19:06:30.181Z,98488.64
2023-06-30T19:08:57.730Z,98490.66
2023-06-30T19:11:25.682Z,98489.55
2023-06-30T19:13:53.249Z,98491.30
2023-06-30T19:16:21.761Z,98487.70
2023-06-30T19:18:49.521Z,98489.04
2023-06-30T19:21:17.674Z,98487.67
2023-06-30T19:23:45.442Z,98490.02
2023-06-30T19:26:13.071Z,98488.02
2023-06-30T19:28:40.795Z,98489.89
2023-06-30T19:31:08.898Z,98493.92
2023-06-30T19:33:37.885Z,98498.34
2023-06-30T19:36:06.235Z,98495.83
2023-06-30T19:38:37.034Z,98495.08
2023-06-30T19:41:04.702Z,98488.29
2023-06-30T19:43:32.267Z,98488.59
2023-06-30T19:46:01.135Z,98484.48
2023-06-30T19:48:28.776Z,98484.30
2023-06-30T19:50:56.317Z,98486.39
2023-06-30T19:53:23.989Z,98492.04
2023-06-30T19:55:52.651Z,98496.81
2023-06-30T19:58:20.202Z,98491.58
2023-06-30T20:00:48.128Z,98495.67
2023-06-30T20:03:15.833Z,98490.15
2023-06-30T20:05:43.665Z,98490.25
2023-06-30T20:08:11.279Z,98496.33
2023-06-30T20:10:38.895Z,98498.70
2023-06-30T20:13:07.802Z,98498.89
2023-06-30T20:15:35.530Z,98497.44
2023-06-30T20:18:03.124Z,98498.67
2023-06-30T20:20:30.798Z,98499.23
2023-06-30T20:22:58.385Z,98497.72
2023-06-30T20:25:28.605Z,98497.04
2023-06-30T20:27:56.300Z,98492.69
2023-06-30T20:30:23.931Z,98492.27
2023-06-30T20:32:51.622Z,98488.58
2023-06-30T20:35:20.190Z,98490.58
2023-06-30T20:37:48.090Z,98491.40
2023-06-30T20:40:15.935Z,98493.86
2023-06-30T20:42:43.626Z,98495.16
2023-06-30T20:45:11.254Z,98492.60
2023-06-30T20:47:39.031Z,98485.05
2023-06-30T20:50:09.240Z,98477.42
2023-06-30T20:52:37.509Z,98476.23
2023-06-30T20:55:05.841Z,98475.43
2023-06-30T20:57:33.799Z,98478.31
2023-06-30T21:00:01.393Z,98475.16
2023-06-30T21:02:28.946Z,98473.98
2023-06-30T21:04:58.851Z,98478.27
2023-06-30T21:07:26.810Z,98482.06
2023-06-30T21:09:54.397Z,98484.70
2023-06-30T21:12:22.015Z,98484.83
2023-06-30T21:14:49.580Z,98480.24
2023-06-30T21:17:17.258Z,98485.35
2023-06-30T21:19:45.034Z,98491.20
2023-06-30T21:22:12.623Z,98494.90
2023-06-30T21:24:40.284Z,98493.72
2023-06-30T21:27:07.872Z,98490.29
2023-06-30T21:29:35.452Z,98491.44
2023-06-30T21:32:03.921Z,98495.89
2023-06-30T21:34:35.861Z,98501.73
2023-06-30T21:37:04.007Z,98500.34
2023-06-30T21:39:31.675Z,98502.20
2023-06-30T21:41:59.295Z,98498.38
2023-06-30T21:44:27.000Z,98498.84
2023-06-30T21:46:54.624Z,98500.94
2023-06-30T21:49:22.216Z,98495.61
2023-06-30T21:51:49.885Z,98492.02
2023-06-30T21:54:27.210Z,98495.73
2023-06-30T21:57:04.741Z,98499.72
2023-06-30T21:59:32.302Z,98501.04
2023-06-30T22:01:59.900Z,98499.65
2023-06-30T22:04:27.874Z,98499.61
2023-06-30T22:06:55.700Z,98501.39
2023-06-30T22:09:23.274Z,98498.61
2023-06-30T22:11:50.866Z,98503.86
2023-06-30T22:14:18.513Z,98506.21
2023-06-30T22:16:46.121Z,98507.87
2023-06-30T22:19:13.690Z,98503.41
2023-06-30T22:21:41.858Z,98507.23
2023-06-30T22:24:09.438Z,98514.48
2023-06-30T22:26:37.147Z,98511.58
2023-06-30T22:29:05.053Z,98506.52
2023-06-30T22:31:32.708Z,98512.64
2023-06-30T22:34:00.433Z,98516.09
2023-06-30T22:36:27.958Z,98513.34
2023-06-30T22:38:55.596Z,98512.28
2023-06-30T22:41:23.694Z,98510.27
2023-06-30T22:43:51.245Z,98513.11
2023-06-30T22:46:18.869Z,98511.52
2023-06-30T22:48:46.431Z,98513.83
2023-06-30T22:51:16.531Z,98508.15
2023-06-30T22:53:44.138Z,98508.39
2023-06-30T22:56:11.835Z,98507.44
2023-06-30T22:58:39.345Z,98504.86
2023-06-30T23:01:08.597Z,98508.32
2023-06-30T23:03:36.303Z,98504.33
2023-06-30T23:06:04.092Z,98505.95
2023-06-30T23:08:31.660Z,98501.33
2023-06-30T23:10:59.484Z,98503.06
2023-06-30T23:13:27.030Z,98502.13
2023-06-30T23:15:55.197Z,98507.00
2023-06-30T23:18:22.878Z,98507.88
2023-06-30T23:20:50.677Z,98509.23
2023-06-30T23:23:18.544Z,98515.18
2023-06-30T23:25:46.218Z,98507.63
2023-06-30T23:28:13.754Z,98509.52
2023-06-30T23:30:43.848Z,98511.17
2023-06-30T23:33:11.566Z,98508.20
2023-06-30T23:35:39.316Z,98511.98
2023-06-30T23:38:06.932Z,98515.73
2023-06-30T23:40:34.594Z,98513.88
2023-06-30T23:43:02.271Z,98514.78
2023-06-30T23:45:29.862Z,98516.80
2023-06-30T23:48:01.096Z,98520.63
2023-06-30T23:50:41.732Z,98519.30
2023-06-30T23:53:09.541Z,98518.80
2023-06-30T23:55:36.991Z,98521.06
2023-06-30T23:58:04.905Z,98520.25
